sensor_id;sensor_type;location;lat;lon;timestamp;pressure;altitude;pressure_sealevel;temperature;humidity
6952;BME280;3515;50.138;8.502;2022-09-09T00:01:38;101210;;;15.4;88.4
6952;BME280;3515;50.138;8.502;2022-09-09T00:04:03;101210;;;15.4;88.9
6952;BME280;3515;50.138;8.502;2022-09-09T00:09:01;101200;;;15.5;89.4
6952;BME280;3515;50.138;8.502;2022-09-09T00:11:25;101210;;;15.4;89.4
6952;BME280;3515;50.138;8.502;2022-09-09T00:13:50;101210;;;15.4;89.4
6952;BME280;3515;50.138;8.502;2022-09-09T00:16:15;101210;;;15.4;89.4
6952;BME280;3515;50.138;8.502;2022-09-09T00:18:45;101200;;;15.4;89.4
6952;BME280;3515;50.138;8.502;2022-09-09T00:21:05;101200;;;15.4;89.3
6952;BME280;3515;50.138;8.502;2022-09-09T00:23:30;101200;;;15.3;89.4
6952;BME280;3515;50.138;8.502;2022-09-09T00:26:01;101210;;;15.3;89.4
6952;BME280;3515;50.138;8.502;2022-09-09T00:28:22;101170;;;15.3;89.4
6952;BME280;3515;50.138;8.502;2022-09-09T00:30:46;101190;;;15.3;89.4
6952;BME280;3515;50.138;8.502;2022-09-09T00:33:12;101200;;;15.2;89.3
6952;BME280;3515;50.138;8.502;2022-09-09T00:35:37;101190;;;15.2;89.3
6952;BME280;3515;50.138;8.502;2022-09-09T00:38:05;101180;;;15.2;89.3
6952;BME280;3515;50.138;8.502;2022-09-09T00:40:30;101200;;;15.1;89.3
6952;BME280;3515;50.138;8.502;2022-09-09T00:45:44;101210;;;15.1;89.3
6952;BME280;3515;50.138;8.502;2022-09-09T00:47:54;101200;;;15.1;89.3
6952;BME280;3515;50.138;8.502;2022-09-09T00:50:33;101200;;;15.1;89.3
6952;BME280;3515;50.138;8.502;2022-09-09T00:52:46;101210;;;15.1;89.8
6952;BME280;3515;50.138;8.502;2022-09-09T00:55:12;101210;;;14.9;89.8
6952;BME280;3515;50.138;8.502;2022-09-09T00:57:36;101210;;;14.9;89.8
6952;BME280;3515;50.138;8.502;2022-09-09T01:02:27;101220;;;14.9;89.8
6952;BME280;3515;50.138;8.502;2022-09-09T01:04:52;101200;;;14.9;89.8
6952;BME280;3515;50.138;8.502;2022-09-09T01:07:17;101210;;;14.8;89.8
6952;BME280;3515;50.138;8.502;2022-09-09T01:09:50;101200;;;14.8;89.8
6952;BME280;3515;50.138;8.502;2022-09-09T01:12:09;101220;;;14.7;89.8
6952;BME280;3515;50.138;8.502;2022-09-09T01:14:39;101190;;;14.7;89.8
6952;BME280;3515;50.138;8.502;2022-09-09T01:16:59;101200;;;14.6;89.8
6952;BME280;3515;50.138;8.502;2022-09-09T01:19:27;101200;;;14.6;89.8
6952;BME280;3515;50.138;8.502;2022-09-09T01:21:51;101210;;;14.6;90.3
6952;BME280;3515;50.138;8.502;2022-09-09T01:24:20;101190;;;14.6;90.3
6952;BME280;3515;50.138;8.502;2022-09-09T01:26:40;101210;;;14.5;90.3
6952;BME280;3515;50.138;8.502;2022-09-09T01:29:07;101220;;;14.5;90.8
6952;BME280;3515;50.138;8.502;2022-09-09T01:31:32;101230;;;14.4;90.8
6952;BME280;3515;50.138;8.502;2022-09-09T01:33:59;101210;;;14.4;90.8
6952;BME280;3515;50.138;8.502;2022-09-09T01:36:28;101210;;;14.4;90.8
6952;BME280;3515;50.138;8.502;2022-09-09T01:38:49;101210;;;14.4;90.8
6952;BME280;3515;50.138;8.502;2022-09-09T01:41:15;101190;;;14.4;90.8
6952;BME280;3515;50.138;8.502;2022-09-09T01:43:40;101190;;;14.3;90.8
6952;BME280;3515;50.138;8.502;2022-09-09T01:46:05;101170;;;14.3;90.8
6952;BME280;3515;50.138;8.502;2022-09-09T01:48:31;101190;;;14.3;90.8
6952;BME280;3515;50.138;8.502;2022-09-09T01:51:01;101190;;;14.2;90.8
6952;BME280;3515;50.138;8.502;2022-09-09T01:53:26;101200;;;14.2;90.8
6952;BME280;3515;50.138;8.502;2022-09-09T01:55:56;101190;;;14.2;90.8
6952;BME280;3515;50.138;8.502;2022-09-09T01:58:22;101210;;;14.2;90.8
6952;BME280;3515;50.138;8.502;2022-09-09T02:00:43;101210;;;14.1;90.8
6952;BME280;3515;50.138;8.502;2022-09-09T02:03:09;101190;;;14.1;90.8
6952;BME280;3515;50.138;8.502;2022-09-09T02:05:34;101230;;;14.1;90.8
6952;BME280;3515;50.138;8.502;2022-09-09T02:08:00;101200;;;14.1;90.8
6952;BME280;3515;50.138;8.502;2022-09-09T02:10:27;101210;;;14.1;90.8
6952;BME280;3515;50.138;8.502;2022-09-09T02:12:53;101210;;;14.1;90.8
6952;BME280;3515;50.138;8.502;2022-09-09T02:15:19;101210;;;14.1;90.8
6952;BME280;3515;50.138;8.502;2022-09-09T02:17:41;101210;;;14.1;90.8
6952;BME280;3515;50.138;8.502;2022-09-09T02:20:07;101220;;;14.0;90.8
6952;BME280;3515;50.138;8.502;2022-09-09T02:22:31;101220;;;14.0;90.8
6952;BME280;3515;50.138;8.502;2022-09-09T02:24:57;101210;;;14.0;90.8
6952;BME280;3515;50.138;8.502;2022-09-09T02:27:22;101210;;;14.0;90.8
6952;BME280;3515;50.138;8.502;2022-09-09T02:29:47;101210;;;14.1;91.4
6952;BME280;3515;50.138;8.502;2022-09-09T02:32:13;101210;;;14.1;91.4
6952;BME280;3515;50.138;8.502;2022-09-09T02:34:39;101230;;;14.1;90.9
6952;BME280;3515;50.138;8.502;2022-09-09T02:37:04;101230;;;14.1;90.8
6952;BME280;3515;50.138;8.502;2022-09-09T02:39:29;101210;;;14.1;90.8
6952;BME280;3515;50.138;8.502;2022-09-09T02:41:54;101230;;;14.2;90.9
6952;BME280;3515;50.138;8.502;2022-09-09T02:44:19;101210;;;14.2;90.9
6952;BME280;3515;50.138;8.502;2022-09-09T02:46:56;101210;;;14.2;91.4
6952;BME280;3515;50.138;8.502;2022-09-09T02:49:11;101200;;;14.2;91.4
6952;BME280;3515;50.138;8.502;2022-09-09T02:51:45;101210;;;14.2;91.4
6952;BME280;3515;50.138;8.502;2022-09-09T02:54:09;101210;;;14.2;91.4
6952;BME280;3515;50.138;8.502;2022-09-09T02:56:31;101210;;;14.3;91.4
6952;BME280;3515;50.138;8.502;2022-09-09T02:58:56;101210;;;14.3;91.4
6952;BME280;3515;50.138;8.502;2022-09-09T03:01:21;101220;;;14.3;91.4
6952;BME280;3515;50.138;8.502;2022-09-09T03:03:47;101200;;;14.3;91.4
6952;BME280;3515;50.138;8.502;2022-09-09T03:06:12;101190;;;14.4;91.4
6952;BME280;3515;50.138;8.502;2022-09-09T03:08:37;101200;;;14.4;91.4
6952;BME280;3515;50.138;8.502;2022-09-09T03:11:05;101190;;;14.4;91.4
6952;BME280;3515;50.138;8.502;2022-09-09T03:13:30;101200;;;14.4;91.4
6952;BME280;3515;50.138;8.502;2022-09-09T03:15:56;101190;;;14.4;91.4
6952;BME280;3515;50.138;8.502;2022-09-09T03:18:21;101210;;;14.4;91.4
6952;BME280;3515;50.138;8.502;2022-09-09T03:20:49;101200;;;14.4;91.4
6952;BME280;3515;50.138;8.502;2022-09-09T03:23:15;101190;;;14.3;91.4
6952;BME280;3515;50.138;8.502;2022-09-09T03:25:46;101210;;;14.3;91.4
6952;BME280;3515;50.138;8.502;2022-09-09T03:28:05;101170;;;14.3;91.4
6952;BME280;3515;50.138;8.502;2022-09-09T03:30:31;101190;;;14.3;91.4
6952;BME280;3515;50.138;8.502;2022-09-09T03:32:56;101200;;;14.3;91.4
6952;BME280;3515;50.138;8.502;2022-09-09T03:35:21;101200;;;14.4;91.4
6952;BME280;3515;50.138;8.502;2022-09-09T03:37:46;101200;;;14.4;91.4
6952;BME280;3515;50.138;8.502;2022-09-09T03:40:12;101200;;;14.4;91.4
6952;BME280;3515;50.138;8.502;2022-09-09T03:42:40;101220;;;14.4;91.4
6952;BME280;3515;50.138;8.502;2022-09-09T03:45:09;101210;;;14.4;91.4
6952;BME280;3515;50.138;8.502;2022-09-09T03:50:08;101200;;;14.5;91.4
6952;BME280;3515;50.138;8.502;2022-09-09T03:52:34;101210;;;14.5;91.4
6952;BME280;3515;50.138;8.502;2022-09-09T03:54:57;101240;;;14.4;91.4
6952;BME280;3515;50.138;8.502;2022-09-09T03:57:23;101210;;;14.5;91.4
6952;BME280;3515;50.138;8.502;2022-09-09T03:59:48;101220;;;14.4;91.4
6952;BME280;3515;50.138;8.502;2022-09-09T04:02:13;101200;;;14.4;91.4
6952;BME280;3515;50.138;8.502;2022-09-09T04:04:38;101210;;;14.4;91.4
6952;BME280;3515;50.138;8.502;2022-09-09T04:07:04;101190;;;14.5;91.4
6952;BME280;3515;50.138;8.502;2022-09-09T04:09:29;101190;;;14.5;91.4
6952;BME280;3515;50.138;8.502;2022-09-09T04:11:54;101170;;;14.6;91.5
6952;BME280;3515;50.138;8.502;2022-09-09T04:14:20;101180;;;14.6;91.4
6952;BME280;3515;50.138;8.502;2022-09-09T04:16:45;101170;;;14.6;91.4
6952;BME280;3515;50.138;8.502;2022-09-09T04:19:10;101180;;;14.6;91.5
6952;BME280;3515;50.138;8.502;2022-09-09T04:21:35;101170;;;14.6;91.4
6952;BME280;3515;50.138;8.502;2022-09-09T04:24:01;101170;;;14.5;91.9
6952;BME280;3515;50.138;8.502;2022-09-09T04:26:26;101180;;;14.5;90.9
6952;BME280;3515;50.138;8.502;2022-09-09T04:28:51;101200;;;14.5;91.9
6952;BME280;3515;50.138;8.502;2022-09-09T04:31:17;101180;;;14.6;91.4
6952;BME280;3515;50.138;8.502;2022-09-09T04:33:41;101180;;;14.6;91.4
6952;BME280;3515;50.138;8.502;2022-09-09T04:36:07;101150;;;14.5;90.9
6952;BME280;3515;50.138;8.502;2022-09-09T04:38:32;101160;;;14.5;90.9
6952;BME280;3515;50.138;8.502;2022-09-09T04:40:57;101190;;;14.5;91.9
6952;BME280;3515;50.138;8.502;2022-09-09T04:43:22;101170;;;14.6;91.4
6952;BME280;3515;50.138;8.502;2022-09-09T04:45:48;101190;;;14.7;91.5
6952;BME280;3515;50.138;8.502;2022-09-09T04:48:13;101210;;;14.6;91.4
6952;BME280;3515;50.138;8.502;2022-09-09T04:50:38;101190;;;14.6;91.4
6952;BME280;3515;50.138;8.502;2022-09-09T04:53:04;101200;;;14.5;91.4
6952;BME280;3515;50.138;8.502;2022-09-09T04:55:29;101210;;;14.6;91.4
6952;BME280;3515;50.138;8.502;2022-09-09T04:57:54;101200;;;14.5;91.4
6952;BME280;3515;50.138;8.502;2022-09-09T05:00:19;101210;;;14.5;91.4
6952;BME280;3515;50.138;8.502;2022-09-09T05:02:45;101200;;;14.5;91.4
6952;BME280;3515;50.138;8.502;2022-09-09T05:05:10;101210;;;14.5;91.4
6952;BME280;3515;50.138;8.502;2022-09-09T05:07:35;101200;;;14.6;91.4
6952;BME280;3515;50.138;8.502;2022-09-09T05:10:00;101200;;;14.5;91.4
6952;BME280;3515;50.138;8.502;2022-09-09T05:12:25;101210;;;14.5;91.9
6952;BME280;3515;50.138;8.502;2022-09-09T05:14:51;101200;;;14.5;91.9
6952;BME280;3515;50.138;8.502;2022-09-09T05:17:16;101200;;;14.6;91.4
6952;BME280;3515;50.138;8.502;2022-09-09T05:19:41;101210;;;14.5;91.4
6952;BME280;3515;50.138;8.502;2022-09-09T05:22:07;101210;;;14.4;91.9
6952;BME280;3515;50.138;8.502;2022-09-09T05:24:32;101220;;;14.5;91.9
6952;BME280;3515;50.138;8.502;2022-09-09T05:26:57;101220;;;14.5;91.9
6952;BME280;3515;50.138;8.502;2022-09-09T05:29:22;101220;;;14.6;91.9
6952;BME280;3515;50.138;8.502;2022-09-09T05:31:48;101240;;;14.6;91.9
6952;BME280;3515;50.138;8.502;2022-09-09T05:34:13;101230;;;14.6;91.9
6952;BME280;3515;50.138;8.502;2022-09-09T05:36:38;101240;;;14.7;91.9
6952;BME280;3515;50.138;8.502;2022-09-09T05:39:03;101220;;;14.7;91.9
6952;BME280;3515;50.138;8.502;2022-09-09T05:41:29;101240;;;14.7;91.4
6952;BME280;3515;50.138;8.502;2022-09-09T05:43:54;101240;;;14.8;91.4
6952;BME280;3515;50.138;8.502;2022-09-09T05:46:19;101240;;;14.8;91.4
6952;BME280;3515;50.138;8.502;2022-09-09T05:48:45;101250;;;14.8;91.5
6952;BME280;3515;50.138;8.502;2022-09-09T05:51:10;101250;;;14.9;91.4
6952;BME280;3515;50.138;8.502;2022-09-09T05:53:40;101250;;;14.9;91.4
6952;BME280;3515;50.138;8.502;2022-09-09T05:56:06;101240;;;14.9;90.9
6952;BME280;3515;50.138;8.502;2022-09-09T05:58:30;101260;;;14.9;90.9
6952;BME280;3515;50.138;8.502;2022-09-09T06:01:04;101270;;;15.0;90.9
6952;BME280;3515;50.138;8.502;2022-09-09T06:03:21;101260;;;15.1;90.5
6952;BME280;3515;50.138;8.502;2022-09-09T06:05:46;101270;;;15.1;90.5
6952;BME280;3515;50.138;8.502;2022-09-09T06:08:11;101250;;;15.2;90.5
6952;BME280;3515;50.138;8.502;2022-09-09T06:10:36;101260;;;15.2;90.5
6952;BME280;3515;50.138;8.502;2022-09-09T06:13:02;101270;;;15.2;90.0
6952;BME280;3515;50.138;8.502;2022-09-09T06:15:27;101290;;;15.2;90.5
6952;BME280;3515;50.138;8.502;2022-09-09T06:17:55;101260;;;15.3;90.0
6952;BME280;3515;50.138;8.502;2022-09-09T06:20:20;101270;;;15.4;89.5
6952;BME280;3515;50.138;8.502;2022-09-09T06:22:46;101270;;;15.6;89.0
6952;BME280;3515;50.138;8.502;2022-09-09T06:25:11;101240;;;15.7;88.5
6952;BME280;3515;50.138;8.502;2022-09-09T06:27:36;101270;;;15.7;88.5
6952;BME280;3515;50.138;8.502;2022-09-09T06:30:02;101240;;;15.9;88.5
6952;BME280;3515;50.138;8.502;2022-09-09T06:32:27;101240;;;15.9;88.5
6952;BME280;3515;50.138;8.502;2022-09-09T06:34:52;101250;;;16.1;88.0
6952;BME280;3515;50.138;8.502;2022-09-09T06:37:17;101260;;;16.0;88.0
6952;BME280;3515;50.138;8.502;2022-09-09T06:39:42;101250;;;15.9;88.5
6952;BME280;3515;50.138;8.502;2022-09-09T06:42:08;101250;;;16.0;88.5
6952;BME280;3515;50.138;8.502;2022-09-09T06:44:33;101280;;;16.0;88.5
6952;BME280;3515;50.138;8.502;2022-09-09T06:46:58;101260;;;16.1;89.0
6952;BME280;3515;50.138;8.502;2022-09-09T06:49:24;101260;;;16.0;88.5
6952;BME280;3515;50.138;8.502;2022-09-09T06:51:49;101280;;;16.0;88.5
6952;BME280;3515;50.138;8.502;2022-09-09T06:54:20;101270;;;16.0;88.5
6952;BME280;3515;50.138;8.502;2022-09-09T06:56:44;101280;;;15.9;87.9
6952;BME280;3515;50.138;8.502;2022-09-09T06:59:10;101270;;;16.0;88.0
6952;BME280;3515;50.138;8.502;2022-09-09T07:01:35;101260;;;16.0;88.0
6952;BME280;3515;50.138;8.502;2022-09-09T07:04:00;101260;;;15.9;87.9
6952;BME280;3515;50.138;8.502;2022-09-09T07:06:26;101250;;;15.9;87.9
6952;BME280;3515;50.138;8.502;2022-09-09T07:08:51;101240;;;15.9;87.9
6952;BME280;3515;50.138;8.502;2022-09-09T07:11:16;101250;;;15.9;87.9
6952;BME280;3515;50.138;8.502;2022-09-09T07:13:41;101260;;;15.9;87.9
6952;BME280;3515;50.138;8.502;2022-09-09T07:16:07;101260;;;15.9;87.9
6952;BME280;3515;50.138;8.502;2022-09-09T07:18:32;101270;;;15.9;87.9
6952;BME280;3515;50.138;8.502;2022-09-09T07:20:57;101280;;;16.0;88.0
6952;BME280;3515;50.138;8.502;2022-09-09T07:23:22;101270;;;16.1;88.0
6952;BME280;3515;50.138;8.502;2022-09-09T07:25:47;101270;;;16.1;86.9
6952;BME280;3515;50.138;8.502;2022-09-09T07:28:12;101280;;;16.1;86.9
6952;BME280;3515;50.138;8.502;2022-09-09T07:30:38;101280;;;16.1;86.9
6952;BME280;3515;50.138;8.502;2022-09-09T07:33:03;101240;;;16.2;87.0
6952;BME280;3515;50.138;8.502;2022-09-09T07:35:28;101260;;;16.2;87.0
6952;BME280;3515;50.138;8.502;2022-09-09T07:37:54;101280;;;16.2;86.9
6952;BME280;3515;50.138;8.502;2022-09-09T07:40:25;101270;;;16.3;86.5
6952;BME280;3515;50.138;8.502;2022-09-09T07:42:49;101280;;;16.4;86.5
6952;BME280;3515;50.138;8.502;2022-09-09T07:45:14;101270;;;16.4;86.5
6952;BME280;3515;50.138;8.502;2022-09-09T07:47:40;101280;;;16.5;86.5
6952;BME280;3515;50.138;8.502;2022-09-09T07:50:05;101290;;;16.6;86.5
6952;BME280;3515;50.138;8.502;2022-09-09T07:52:30;101280;;;16.6;86.0
6952;BME280;3515;50.138;8.502;2022-09-09T07:55:00;101290;;;16.6;86.0
6952;BME280;3515;50.138;8.502;2022-09-09T07:57:25;101270;;;16.6;85.5
6952;BME280;3515;50.138;8.502;2022-09-09T07:59:51;101290;;;16.6;85.0
6952;BME280;3515;50.138;8.502;2022-09-09T08:02:16;101300;;;16.7;85.0
6952;BME280;3515;50.138;8.502;2022-09-09T08:04:41;101300;;;16.8;85.0
6952;BME280;3515;50.138;8.502;2022-09-09T08:07:06;101310;;;16.8;85.0
6952;BME280;3515;50.138;8.502;2022-09-09T08:09:32;101290;;;16.9;84.5
6952;BME280;3515;50.138;8.502;2022-09-09T08:11:57;101310;;;16.9;84.5
6952;BME280;3515;50.138;8.502;2022-09-09T08:14:22;101290;;;17.0;84.5
6952;BME280;3515;50.138;8.502;2022-09-09T08:16:48;101310;;;17.0;84.0
6952;BME280;3515;50.138;8.502;2022-09-09T08:19:13;101290;;;17.1;83.5
6952;BME280;3515;50.138;8.502;2022-09-09T08:21:39;101310;;;17.1;83.5
6952;BME280;3515;50.138;8.502;2022-09-09T08:24:03;101310;;;17.2;83.5
6952;BME280;3515;50.138;8.502;2022-09-09T08:26:29;101300;;;17.4;83.5
6952;BME280;3515;50.138;8.502;2022-09-09T08:28:54;101300;;;17.4;83.0
6952;BME280;3515;50.138;8.502;2022-09-09T08:31:20;101270;;;17.5;83.0
6952;BME280;3515;50.138;8.502;2022-09-09T08:33:44;101310;;;17.6;83.0
6952;BME280;3515;50.138;8.502;2022-09-09T08:36:11;101280;;;17.6;82.5
6952;BME280;3515;50.138;8.502;2022-09-09T08:38:35;101320;;;17.6;82.5
6952;BME280;3515;50.138;8.502;2022-09-09T08:41:07;101320;;;17.6;82.5
6952;BME280;3515;50.138;8.502;2022-09-09T08:43:25;101290;;;17.6;82.5
6952;BME280;3515;50.138;8.502;2022-09-09T08:45:54;101290;;;17.6;82.0
6952;BME280;3515;50.138;8.502;2022-09-09T08:48:23;101300;;;17.6;82.0
6952;BME280;3515;50.138;8.502;2022-09-09T08:50:41;101270;;;17.6;82.0
6952;BME280;3515;50.138;8.502;2022-09-09T08:53:10;101280;;;17.5;81.5
6952;BME280;3515;50.138;8.502;2022-09-09T08:55:42;101280;;;17.6;81.5
6952;BME280;3515;50.138;8.502;2022-09-09T08:57:58;101280;;;17.6;82.0
6952;BME280;3515;50.138;8.502;2022-09-09T09:00:22;101270;;;17.6;81.5
6952;BME280;3515;50.138;8.502;2022-09-09T09:02:51;101290;;;17.6;81.5
6952;BME280;3515;50.138;8.502;2022-09-09T09:05:17;101260;;;17.8;81.0
6952;BME280;3515;50.138;8.502;2022-09-09T09:07:44;101280;;;17.8;80.5
6952;BME280;3515;50.138;8.502;2022-09-09T09:10:05;101290;;;17.8;80.0
6952;BME280;3515;50.138;8.502;2022-09-09T09:12:30;101280;;;17.9;79.5
6952;BME280;3515;50.138;8.502;2022-09-09T09:14:54;101300;;;17.9;80.0
6952;BME280;3515;50.138;8.502;2022-09-09T09:17:19;101290;;;17.9;79.5
6952;BME280;3515;50.138;8.502;2022-09-09T09:19:44;101290;;;17.9;80.0
6952;BME280;3515;50.138;8.502;2022-09-09T09:22:14;101290;;;17.9;80.0
6952;BME280;3515;50.138;8.502;2022-09-09T09:24:38;101290;;;17.9;80.0
6952;BME280;3515;50.138;8.502;2022-09-09T09:27:01;101290;;;17.9;81.0
6952;BME280;3515;50.138;8.502;2022-09-09T09:29:25;101310;;;17.8;81.9
6952;BME280;3515;50.138;8.502;2022-09-09T09:31:52;101300;;;17.6;82.4
6952;BME280;3515;50.138;8.502;2022-09-09T09:34:16;101300;;;17.6;81.9
6952;BME280;3515;50.138;8.502;2022-09-09T09:36:42;101280;;;17.7;81.0
6952;BME280;3515;50.138;8.502;2022-09-09T09:39:06;101270;;;17.8;80.4
6952;BME280;3515;50.138;8.502;2022-09-09T09:41:32;101280;;;17.9;80.0
6952;BME280;3515;50.138;8.502;2022-09-09T09:43:57;101280;;;18.0;79.5
6952;BME280;3515;50.138;8.502;2022-09-09T09:46:23;101290;;;18.0;80.0
6952;BME280;3515;50.138;8.502;2022-09-09T09:48:56;101290;;;18.0;81.5
6952;BME280;3515;50.138;8.502;2022-09-09T09:51:13;101280;;;17.9;81.9
6952;BME280;3515;50.138;8.502;2022-09-09T09:53:38;101290;;;17.9;82.4
6952;BME280;3515;50.138;8.502;2022-09-09T09:56:05;101280;;;17.8;82.5
6952;BME280;3515;50.138;8.502;2022-09-09T09:58:30;101280;;;17.8;82.4
6952;BME280;3515;50.138;8.502;2022-09-09T10:00:54;101290;;;17.8;82.4
6952;BME280;3515;50.138;8.502;2022-09-09T10:03:22;101280;;;17.8;83.4
6952;BME280;3515;50.138;8.502;2022-09-09T10:05:45;101290;;;17.7;84.4
6952;BME280;3515;50.138;8.502;2022-09-09T10:08:11;101280;;;17.7;85.4
6952;BME280;3515;50.138;8.502;2022-09-09T10:10:41;101280;;;17.7;85.4
6952;BME280;3515;50.138;8.502;2022-09-09T10:13:02;101290;;;17.7;84.4
6952;BME280;3515;50.138;8.502;2022-09-09T10:15:30;101290;;;17.6;84.4
6952;BME280;3515;50.138;8.502;2022-09-09T10:17:59;101270;;;17.6;84.9
6952;BME280;3515;50.138;8.502;2022-09-09T10:20:28;101280;;;17.6;84.4
6952;BME280;3515;50.138;8.502;2022-09-09T10:22:47;101280;;;17.5;83.9
6952;BME280;3515;50.138;8.502;2022-09-09T10:25:21;101270;;;17.5;83.4
6952;BME280;3515;50.138;8.502;2022-09-09T10:27:39;101260;;;17.5;82.4
6952;BME280;3515;50.138;8.502;2022-09-09T10:30:08;101230;;;17.6;82.5
6952;BME280;3515;50.138;8.502;2022-09-09T10:34:55;101260;;;17.9;82.5
6952;BME280;3515;50.138;8.502;2022-09-09T10:37:22;101250;;;17.9;82.5
6952;BME280;3515;50.138;8.502;2022-09-09T10:39:44;101260;;;17.9;83.0
6952;BME280;3515;50.138;8.502;2022-09-09T10:42:10;101250;;;18.1;81.5
6952;BME280;3515;50.138;8.502;2022-09-09T10:44:41;101270;;;18.3;80.0
6952;BME280;3515;50.138;8.502;2022-09-09T10:47:11;101270;;;18.4;79.5
6952;BME280;3515;50.138;8.502;2022-09-09T10:49:32;101280;;;18.4;79.5
6952;BME280;3515;50.138;8.502;2022-09-09T10:51:53;101250;;;18.4;78.0
6952;BME280;3515;50.138;8.502;2022-09-09T10:54:23;101260;;;18.5;77.0
6952;BME280;3515;50.138;8.502;2022-09-09T10:56:41;101250;;;18.9;76.0
6952;BME280;3515;50.138;8.502;2022-09-09T10:59:09;101240;;;19.2;75.5
6952;BME280;3515;50.138;8.502;2022-09-09T11:01:33;101260;;;19.4;74.0
6952;BME280;3515;50.138;8.502;2022-09-09T11:03:57;101240;;;19.4;73.5
6952;BME280;3515;50.138;8.502;2022-09-09T11:06:24;101240;;;19.4;73.0
6952;BME280;3515;50.138;8.502;2022-09-09T11:08:48;101250;;;19.3;72.5
6952;BME280;3515;50.138;8.502;2022-09-09T11:11:13;101250;;;19.4;72.0
6952;BME280;3515;50.138;8.502;2022-09-09T11:13:39;101260;;;19.6;71.0
6952;BME280;3515;50.138;8.502;2022-09-09T11:16:05;101240;;;19.8;70.5
6952;BME280;3515;50.138;8.502;2022-09-09T11:18:29;101220;;;19.9;69.5
6952;BME280;3515;50.138;8.502;2022-09-09T11:20:56;101230;;;20.0;70.0
6952;BME280;3515;50.138;8.502;2022-09-09T11:23:20;101230;;;20.1;68.0
6952;BME280;3515;50.138;8.502;2022-09-09T11:25:46;101210;;;20.2;65.9
6952;BME280;3515;50.138;8.502;2022-09-09T11:28:18;101230;;;20.6;65.4
6952;BME280;3515;50.138;8.502;2022-09-09T11:30:39;101230;;;20.8;64.3
6952;BME280;3515;50.138;8.502;2022-09-09T11:33:08;101250;;;20.9;63.4
6952;BME280;3515;50.138;8.502;2022-09-09T11:35:30;101230;;;20.9;61.4
6952;BME280;3515;50.138;8.502;2022-09-09T11:37:56;101240;;;20.9;62.5
6952;BME280;3515;50.138;8.502;2022-09-09T11:40:17;101230;;;20.9;62.5
6952;BME280;3515;50.138;8.502;2022-09-09T11:42:41;101230;;;20.7;63.0
6952;BME280;3515;50.138;8.502;2022-09-09T11:45:09;101230;;;20.8;62.5
6952;BME280;3515;50.138;8.502;2022-09-09T11:47:34;101230;;;20.6;62.0
6952;BME280;3515;50.138;8.502;2022-09-09T11:50:08;101240;;;20.6;61.5
6952;BME280;3515;50.138;8.502;2022-09-09T11:52:34;101240;;;20.5;62.0
6952;BME280;3515;50.138;8.502;2022-09-09T11:54:50;101230;;;20.6;61.0
6952;BME280;3515;50.138;8.502;2022-09-09T11:57:23;101240;;;20.6;61.0
6952;BME280;3515;50.138;8.502;2022-09-09T11:59:49;101240;;;20.5;61.0
6952;BME280;3515;50.138;8.502;2022-09-09T12:02:10;101250;;;20.6;61.5
6952;BME280;3515;50.138;8.502;2022-09-09T12:04:34;101230;;;20.6;61.5
6952;BME280;3515;50.138;8.502;2022-09-09T12:06:58;101220;;;20.6;62.2
6952;BME280;3515;50.138;8.502;2022-09-09T12:09:25;101240;;;20.6;62.5
6952;BME280;3515;50.138;8.502;2022-09-09T12:11:47;101220;;;20.4;62.5
6952;BME280;3515;50.138;8.502;2022-09-09T12:14:20;101240;;;20.4;62.5
6952;BME280;3515;50.138;8.502;2022-09-09T12:16:37;101230;;;20.3;63.0
6952;BME280;3515;50.138;8.502;2022-09-09T12:19:04;101240;;;20.2;63.5
6952;BME280;3515;50.138;8.502;2022-09-09T12:21:30;101230;;;20.2;63.5
6952;BME280;3515;50.138;8.502;2022-09-09T12:23:54;101240;;;20.2;63.0
6952;BME280;3515;50.138;8.502;2022-09-09T12:26:24;101230;;;20.2;62.0
6952;BME280;3515;50.138;8.502;2022-09-09T12:28:49;101260;;;20.2;61.5
6952;BME280;3515;50.138;8.502;2022-09-09T12:31:10;101230;;;20.2;62.0
6952;BME280;3515;50.138;8.502;2022-09-09T12:33:35;101220;;;20.2;62.0
6952;BME280;3515;50.138;8.502;2022-09-09T12:36:00;101230;;;20.2;62.5
6952;BME280;3515;50.138;8.502;2022-09-09T12:38:27;101240;;;20.2;62.0
6952;BME280;3515;50.138;8.502;2022-09-09T12:40:54;101260;;;20.1;61.5
6952;BME280;3515;50.138;8.502;2022-09-09T12:43:17;101250;;;19.6;63.0
6952;BME280;3515;50.138;8.502;2022-09-09T12:45:41;101270;;;19.1;68.2
6952;BME280;3515;50.138;8.502;2022-09-09T12:48:06;101230;;;18.5;71.1
6952;BME280;3515;50.138;8.502;2022-09-09T12:50:32;101230;;;18.1;72.6
6952;BME280;3515;50.138;8.502;2022-09-09T12:52:57;101230;;;17.9;73.6
6952;BME280;3515;50.138;8.502;2022-09-09T12:55:23;101240;;;17.8;74.6
6952;BME280;3515;50.138;8.502;2022-09-09T12:57:47;101240;;;18.0;74.2
6952;BME280;3515;50.138;8.502;2022-09-09T13:00:15;101230;;;18.3;73.5
6952;BME280;3515;50.138;8.502;2022-09-09T13:02:45;101240;;;18.7;74.0
6952;BME280;3515;50.138;8.502;2022-09-09T13:05:08;101250;;;18.9;73.0
6952;BME280;3515;50.138;8.502;2022-09-09T13:07:28;101250;;;19.1;73.0
6952;BME280;3515;50.138;8.502;2022-09-09T13:09:53;101250;;;19.5;72.5
6952;BME280;3515;50.138;8.502;2022-09-09T13:12:19;101240;;;19.6;72.5
6952;BME280;3515;50.138;8.502;2022-09-09T13:14:44;101210;;;19.7;72.5
6952;BME280;3515;50.138;8.502;2022-09-09T13:17:17;101230;;;19.9;70.0
6952;BME280;3515;50.138;8.502;2022-09-09T13:19:35;101260;;;19.9;71.0
6952;BME280;3515;50.138;8.502;2022-09-09T13:21:59;101260;;;19.9;69.5
6952;BME280;3515;50.138;8.502;2022-09-09T13:24:27;101230;;;20.0;69.3
6952;BME280;3515;50.138;8.502;2022-09-09T13:26:54;101230;;;20.1;68.5
6952;BME280;3515;50.138;8.502;2022-09-09T13:29:16;101210;;;20.3;67.5
6952;BME280;3515;50.138;8.502;2022-09-09T13:31:44;101230;;;20.4;68.0
6952;BME280;3515;50.138;8.502;2022-09-09T13:34:11;101230;;;20.4;67.5
6952;BME280;3515;50.138;8.502;2022-09-09T13:36:34;101200;;;20.3;67.5
6952;BME280;3515;50.138;8.502;2022-09-09T13:39:00;101190;;;20.4;68.5
6952;BME280;3515;50.138;8.502;2022-09-09T13:41:34;101210;;;20.6;67.5
6952;BME280;3515;50.138;8.502;2022-09-09T13:43:50;101210;;;20.5;67.5
6952;BME280;3515;50.138;8.502;2022-09-09T13:46:25;101210;;;20.5;67.0
6952;BME280;3515;50.138;8.502;2022-09-09T13:48:54;101220;;;20.6;67.5
6952;BME280;3515;50.138;8.502;2022-09-09T13:53:34;101230;;;20.8;67.0
6952;BME280;3515;50.138;8.502;2022-09-09T13:58:29;101220;;;20.6;65.5
6952;BME280;3515;50.138;8.502;2022-09-09T14:00:55;101230;;;20.6;65.5
6952;BME280;3515;50.138;8.502;2022-09-09T14:03:20;101220;;;20.4;66.0
6952;BME280;3515;50.138;8.502;2022-09-09T14:05:45;101220;;;20.2;66.4
6952;BME280;3515;50.138;8.502;2022-09-09T14:08:20;101250;;;20.1;66.0
6952;BME280;3515;50.138;8.502;2022-09-09T14:10:39;101250;;;19.9;66.0
6952;BME280;3515;50.138;8.502;2022-09-09T14:13:04;101230;;;19.9;65.5
6952;BME280;3515;50.138;8.502;2022-09-09T14:15:32;101240;;;19.8;65.5